Open Full Screen Window  High Contrast Mode
September 02, 2014 9:53 AM EDT
Weather Information
Wind Direction
  ---
Wind Speed
  00 kt (0 mph)
Wind Gust
  00 kt (0 mph)
Altimeter
29.85 in
Visibility
10 SM
Temperature
21° C
70° F
Dewpoint
18° C
64° F
Humidity
83%
1hr Rain Fall
00.00 in.
24hr Rain Fall
00.39 in.
Sky Condition
Clear
VFR

METAR KIKW 021353Z AUTO 00000KT 10SM CLR 21/18 A2985 RMK AO2 T02120181

*Background is not an actual portrayal of the airport.